createdAt,value
2023-05-10T00:01:22.492Z,100947.22
2023-05-10T00:03:50.506Z,100954.09
2023-05-10T00:06:18.911Z,100949.81
2023-05-10T00:08:47.517Z,100936.06
2023-05-10T00:11:15.410Z,100940.31
2023-05-10T00:13:43.204Z,100936.03
2023-05-10T00:16:11.128Z,100934.34
2023-05-10T00:18:40.452Z,100935.19
2023-05-10T00:21:08.363Z,100939.47
2023-05-10T00:23:36.379Z,100927.44
2023-05-10T00:26:04.349Z,100930.03
2023-05-10T00:28:32.379Z,100936.03
2023-05-10T00:31:00.222Z,100923.16
2023-05-10T00:33:28.074Z,100925.72
2023-05-10T00:35:57.375Z,100920.56
2023-05-10T00:38:25.617Z,100915.41
2023-05-10T00:40:53.652Z,100922.28
2023-05-10T00:43:21.561Z,100919.69
2023-05-10T00:45:49.491Z,100914.56
2023-05-10T00:48:17.461Z,100914.56
2023-05-10T00:50:45.749Z,100915.41
2023-05-10T00:53:15.158Z,100912.81
2023-05-10T00:55:43.568Z,100917.97
2023-05-10T00:58:11.409Z,100916.25
2023-05-10T01:00:40.063Z,100918.81
2023-05-10T01:03:08.062Z,100912.81
2023-05-10T01:05:36.124Z,100911.09
2023-05-10T01:08:04.701Z,100912.81
2023-05-10T01:10:34.094Z,100911.94
2023-05-10T01:13:02.311Z,100902.50
2023-05-10T01:15:30.236Z,100904.19
2023-05-10T01:17:58.578Z,100908.50
2023-05-10T01:20:27.386Z,100905.06
2023-05-10T01:23:16.989Z,100899.91
2023-05-10T01:26:14.080Z,100909.34
2023-05-10T01:29:03.271Z,100900.75
2023-05-10T01:31:45.140Z,100905.91
2023-05-10T01:34:20.101Z,100901.59
2023-05-10T01:36:53.262Z,100902.47
2023-05-10T01:39:27.789Z,100909.31
2023-05-10T01:42:03.252Z,100900.69
2023-05-10T01:44:37.177Z,100897.28
2023-05-10T01:47:09.769Z,100900.69
2023-05-10T01:49:44.039Z,100894.66
2023-05-10T01:52:14.609Z,100892.09
2023-05-10T01:54:48.547Z,100894.63
2023-05-10T01:57:18.752Z,100890.34
2023-05-10T01:59:50.248Z,100889.50
2023-05-10T02:02:21.031Z,100886.91
2023-05-10T02:04:52.786Z,100884.28
2023-05-10T02:07:22.270Z,100877.41
2023-05-10T02:09:50.413Z,100879.13
2023-05-10T02:12:20.125Z,100877.41
2023-05-10T02:14:49.918Z,100877.38
2023-05-10T02:17:18.887Z,100885.09
2023-05-10T02:19:48.805Z,100881.66
2023-05-10T02:22:20.512Z,100880.81
2023-05-10T02:24:49.770Z,100876.50
2023-05-10T02:27:19.349Z,100879.09
2023-05-10T02:29:48.777Z,100870.50
2023-05-10T02:32:18.774Z,100877.34
2023-05-10T02:34:52.886Z,100878.19
2023-05-10T02:37:23.694Z,100881.59
2023-05-10T02:39:54.213Z,100867.84
2023-05-10T02:42:27.436Z,100891.84
2023-05-10T02:44:58.761Z,100882.38
2023-05-10T02:47:26.791Z,100877.22
2023-05-10T02:49:54.614Z,100878.06
2023-05-10T02:52:28.487Z,100890.06
2023-05-10T02:55:00.566Z,100881.47
2023-05-10T02:57:32.352Z,100878.88
2023-05-10T03:00:01.248Z,100890.06
2023-05-10T03:02:29.224Z,100882.31
2023-05-10T03:04:57.237Z,100886.59
2023-05-10T03:07:26.809Z,100879.72
2023-05-10T03:09:54.966Z,100896.84
2023-05-10T03:12:33.710Z,100890.81
2023-05-10T03:15:09.054Z,100887.34
2023-05-10T03:17:43.227Z,100886.47
2023-05-10T03:20:13.360Z,100885.59
2023-05-10T03:22:49.233Z,100889.03
2023-05-10T03:25:19.005Z,100876.16
2023-05-10T03:27:48.113Z,100881.31
2023-05-10T03:30:16.748Z,100885.66
2023-05-10T03:32:44.789Z,100891.66
2023-05-10T03:35:14.253Z,100879.66
2023-05-10T03:37:43.520Z,100888.25
2023-05-10T03:40:11.692Z,100883.09
2023-05-10T03:42:39.517Z,100889.13
2023-05-10T03:45:08.763Z,100884.84
2023-05-10T03:47:36.620Z,100886.53
2023-05-10T03:50:05.020Z,100883.16
2023-05-10T03:52:32.958Z,100888.31
2023-05-10T03:55:04.065Z,100884.03
2023-05-10T03:57:33.312Z,100877.19
2023-05-10T04:00:01.498Z,100879.72
2023-05-10T04:02:31.106Z,100880.59
2023-05-10T04:04:59.272Z,100884.91
2023-05-10T04:07:27.112Z,100882.31
2023-05-10T04:09:55.011Z,100881.50
2023-05-10T04:12:24.288Z,100881.53
2023-05-10T04:14:52.202Z,100879.00
2023-05-10T04:17:20.278Z,100878.13
2023-05-10T04:19:48.221Z,100886.78
2023-05-10T04:22:16.111Z,100884.19
2023-05-10T04:24:43.910Z,100887.66
2023-05-10T04:27:12.594Z,100886.81
2023-05-10T04:29:43.061Z,100890.28
2023-05-10T04:32:11.421Z,100890.34
2023-05-10T04:34:39.331Z,100892.06
2023-05-10T04:37:08.518Z,100894.66
2023-05-10T04:39:36.521Z,100888.59
2023-05-10T04:42:06.738Z,100895.47
2023-05-10T04:44:34.645Z,100895.50
2023-05-10T04:47:04.336Z,100895.56
2023-05-10T04:49:32.416Z,100890.44
2023-05-10T04:52:00.411Z,100890.47
2023-05-10T04:54:28.269Z,100898.19
2023-05-10T04:56:56.158Z,100890.47
2023-05-10T04:59:24.139Z,100894.75
2023-05-10T05:01:52.115Z,100892.13
2023-05-10T05:04:21.327Z,100890.31
2023-05-10T05:06:49.874Z,100883.97
2023-05-10T05:09:18.969Z,100888.53
2023-05-10T05:11:46.876Z,100883.41
2023-05-10T05:14:14.713Z,100887.31
2023-05-10T05:16:42.637Z,100880.19
2023-05-10T05:19:10.590Z,100887.84
2023-05-10T05:21:40.039Z,100885.34
2023-05-10T05:24:08.809Z,100877.88
2023-05-10T05:26:36.852Z,100883.38
2023-05-10T05:29:04.809Z,100875.72
2023-05-10T05:31:32.831Z,100888.66
2023-05-10T05:34:00.779Z,100882.66
2023-05-10T05:36:28.584Z,100875.81
2023-05-10T05:38:58.188Z,100887.22
2023-05-10T05:41:26.272Z,100881.84
2023-05-10T05:43:54.102Z,100892.97
2023-05-10T05:46:22.053Z,100884.28
2023-05-10T05:48:49.945Z,100880.63
2023-05-10T05:51:18.194Z,100890.72
2023-05-10T05:53:46.304Z,100887.13
2023-05-10T05:56:15.682Z,100885.34
2023-05-10T05:58:43.521Z,100894.00
2023-05-10T06:01:11.520Z,100890.53
2023-05-10T06:03:39.619Z,100894.81
2023-05-10T06:06:07.884Z,100893.06
2023-05-10T06:08:35.900Z,100896.22
2023-05-10T06:11:05.304Z,100895.88
2023-05-10T06:13:36.291Z,100893.81
2023-05-10T06:16:04.656Z,100896.94
2023-05-10T06:18:32.634Z,100898.44
2023-05-10T06:21:00.837Z,100899.97
2023-05-10T06:23:28.861Z,100888.59
2023-05-10T06:25:56.741Z,100882.44
2023-05-10T06:28:24.638Z,100890.00
2023-05-10T06:30:54.461Z,100887.16
2023-05-10T06:33:22.407Z,100890.44
2023-05-10T06:35:50.466Z,100886.53
2023-05-10T06:38:18.463Z,100890.84
2023-05-10T06:40:46.485Z,100885.63
2023-05-10T06:43:14.444Z,100881.94
2023-05-10T06:45:43.040Z,100884.78
2023-05-10T06:48:12.682Z,100876.34
2023-05-10T06:50:40.695Z,100896.47
2023-05-10T06:53:08.620Z,100873.63
2023-05-10T06:55:36.461Z,100884.09
2023-05-10T06:58:04.337Z,100876.63
2023-05-10T07:00:32.231Z,100876.94
2023-05-10T07:03:00.523Z,100872.19
2023-05-10T07:05:30.504Z,100875.63
2023-05-10T07:07:58.542Z,100879.72
2023-05-10T07:10:26.467Z,100873.09
2023-05-10T07:12:57.084Z,100872.47
2023-05-10T07:15:25.223Z,100879.53
2023-05-10T07:17:53.787Z,100869.66
2023-05-10T07:20:21.732Z,100861.88
2023-05-10T07:22:51.142Z,100862.59
2023-05-10T07:25:19.565Z,100868.34
2023-05-10T07:27:49.669Z,100861.59
2023-05-10T07:30:20.861Z,100862.66
2023-05-10T07:32:48.890Z,100867.38
2023-05-10T07:35:19.491Z,100873.41
2023-05-10T07:37:47.483Z,100883.38
2023-05-10T07:40:17.274Z,100874.63
2023-05-10T07:42:46.727Z,100868.19
2023-05-10T07:45:15.679Z,100870.75
2023-05-10T07:47:43.815Z,100863.69
2023-05-10T07:50:12.052Z,100843.78
2023-05-10T07:52:39.871Z,100868.44
2023-05-10T07:55:08.973Z,100869.19
2023-05-10T07:57:38.533Z,100859.47
2023-05-10T08:00:07.436Z,100857.63
2023-05-10T08:02:36.305Z,100863.22
2023-05-10T08:05:04.842Z,100855.00
2023-05-10T08:07:32.815Z,100849.41
2023-05-10T08:10:00.665Z,100858.47
2023-05-10T08:12:28.530Z,100860.09
2023-05-10T08:14:58.093Z,100847.47
2023-05-10T08:17:26.164Z,100856.97
2023-05-10T08:19:55.116Z,100847.31
2023-05-10T08:22:22.988Z,100847.59
2023-05-10T08:24:52.086Z,100847.00
2023-05-10T08:27:19.953Z,100843.22
2023-05-10T08:29:50.334Z,100855.09
2023-05-10T08:32:19.928Z,100843.72
2023-05-10T08:34:47.878Z,100838.94
2023-05-10T08:37:15.959Z,100842.31
2023-05-10T08:39:44.346Z,100848.84
2023-05-10T08:42:13.320Z,100845.47
2023-05-10T08:44:41.483Z,100844.28
2023-05-10T08:47:11.217Z,100846.13
2023-05-10T08:49:41.744Z,100856.28
2023-05-10T08:52:10.247Z,100843.03
2023-05-10T08:54:38.879Z,100854.34
2023-05-10T08:57:06.878Z,100848.16
2023-05-10T08:59:35.017Z,100848.97
2023-05-10T09:02:03.637Z,100847.78
2023-05-10T09:04:31.987Z,100841.31
2023-05-10T09:07:02.207Z,100833.75
2023-05-10T09:09:31.031Z,100832.50
2023-05-10T09:11:59.315Z,100834.34
2023-05-10T09:14:27.853Z,100829.16
2023-05-10T09:16:57.164Z,100826.28
2023-05-10T09:19:25.022Z,100823.72
2023-05-10T09:21:52.990Z,100817.16
2023-05-10T09:24:27.639Z,100813.03
2023-05-10T09:26:55.522Z,100803.31
2023-05-10T09:29:23.398Z,100808.88
2023-05-10T09:31:53.529Z,100802.91
2023-05-10T09:34:22.836Z,100817.09
2023-05-10T09:36:55.419Z,100818.25
2023-05-10T09:39:33.003Z,100806.63
2023-05-10T09:42:01.840Z,100814.03
2023-05-10T09:44:29.641Z,100804.63
2023-05-10T09:46:57.557Z,100797.78
2023-05-10T09:49:25.500Z,100797.13
2023-05-10T09:52:04.539Z,100803.06
2023-05-10T09:54:34.217Z,100806.94
2023-05-10T09:57:02.357Z,100790.38
2023-05-10T09:59:31.410Z,100802.34
2023-05-10T10:02:00.390Z,100788.34
2023-05-10T10:04:28.959Z,100783.72
2023-05-10T10:07:04.576Z,100776.28
2023-05-10T10:09:34.606Z,100785.53
2023-05-10T10:12:03.037Z,100790.09
2023-05-10T10:14:31.371Z,100782.59
2023-05-10T10:19:35.350Z,100769.38
2023-05-10T10:22:03.849Z,100768.28
2023-05-10T10:24:33.081Z,100786.38
2023-05-10T10:27:09.853Z,100778.69
2023-05-10T10:29:44.128Z,100780.13
2023-05-10T10:32:21.819Z,100765.03
2023-05-10T10:34:50.304Z,100766.00
2023-05-10T10:37:18.768Z,100756.94
2023-05-10T10:39:50.706Z,100759.41
2023-05-10T10:42:50.949Z,100766.06
2023-05-10T10:45:19.171Z,100761.09
2023-05-10T10:47:47.499Z,100758.44
2023-05-10T10:50:17.128Z,100759.81
2023-05-10T10:52:45.733Z,100746.00
2023-05-10T10:55:18.181Z,100757.63
2023-05-10T10:57:48.408Z,100757.53
2023-05-10T11:00:28.642Z,100739.28
2023-05-10T11:02:59.489Z,100743.75
2023-05-10T11:05:48.663Z,100743.97
2023-05-10T11:08:27.876Z,100748.19
2023-05-10T11:11:08.143Z,100744.53
2023-05-10T11:13:39.648Z,100751.44
2023-05-10T11:16:19.053Z,100750.38
2023-05-10T11:19:00.866Z,100737.28
2023-05-10T11:21:28.801Z,100742.34
2023-05-10T11:23:58.490Z,100743.69
2023-05-10T11:26:32.169Z,100738.66
2023-05-10T11:29:01.843Z,100748.41
2023-05-10T11:31:30.608Z,100738.91
2023-05-10T11:34:00.027Z,100741.25
2023-05-10T11:36:29.828Z,100726.84
2023-05-10T11:38:59.035Z,100736.25
2023-05-10T11:41:32.657Z,100752.78
2023-05-10T11:44:01.101Z,100740.47
2023-05-10T11:46:30.032Z,100741.69
2023-05-10T11:49:02.938Z,100739.91
2023-05-10T11:51:31.271Z,100737.56
2023-05-10T11:53:59.234Z,100744.16
2023-05-10T11:56:28.561Z,100726.19
2023-05-10T11:58:58.170Z,100739.56
2023-05-10T12:01:27.079Z,100736.63
2023-05-10T12:03:59.161Z,100741.56
2023-05-10T12:06:29.388Z,100744.94
2023-05-10T12:08:57.387Z,100744.59
2023-05-10T12:11:29.153Z,100732.19
2023-05-10T12:13:58.277Z,100745.47
2023-05-10T12:16:27.451Z,100746.28
2023-05-10T12:19:00.306Z,100731.75
2023-05-10T12:21:31.487Z,100735.38
2023-05-10T12:24:03.164Z,100728.78
2023-05-10T12:26:32.459Z,100740.44
2023-05-10T12:29:14.715Z,100729.13
2023-05-10T12:31:55.943Z,100727.91
2023-05-10T12:34:28.276Z,100732.28
2023-05-10T12:36:56.927Z,100737.53
2023-05-10T12:39:25.415Z,100728.44
2023-05-10T12:41:54.888Z,100727.13
2023-05-10T12:44:22.888Z,100727.75
2023-05-10T12:46:50.831Z,100736.84
2023-05-10T12:49:20.059Z,100722.97
2023-05-10T12:51:47.827Z,100706.97
2023-05-10T12:54:15.699Z,100719.22
2023-05-10T12:56:43.823Z,100712.56
2023-05-10T12:59:13.133Z,100716.50
2023-05-10T13:01:41.489Z,100722.41
2023-05-10T13:04:09.504Z,100706.31
2023-05-10T13:06:38.225Z,100707.59
2023-05-10T13:09:06.327Z,100701.91
2023-05-10T13:11:34.544Z,100712.63
2023-05-10T13:14:04.241Z,100700.06
2023-05-10T13:16:38.046Z,100698.88
2023-05-10T13:19:10.207Z,100695.22
2023-05-10T13:21:38.460Z,100693.66
2023-05-10T13:24:06.860Z,100695.34
2023-05-10T13:26:35.902Z,100706.03
2023-05-10T13:29:10.213Z,100700.47
2023-05-10T13:31:39.812Z,100704.03
2023-05-10T13:34:09.044Z,100702.75
2023-05-10T13:36:37.144Z,100688.22
2023-05-10T13:39:06.422Z,100681.22
2023-05-10T13:41:35.126Z,100685.25
2023-05-10T13:44:03.052Z,100687.25
2023-05-10T13:46:31.431Z,100676.22
2023-05-10T13:49:00.717Z,100687.19
2023-05-10T13:51:28.681Z,100688.09
2023-05-10T13:53:57.102Z,100687.69
2023-05-10T13:56:25.544Z,100671.06
2023-05-10T13:58:53.705Z,100671.72
2023-05-10T14:01:21.743Z,100677.59
2023-05-10T14:03:50.173Z,100674.22
2023-05-10T14:06:20.216Z,100669.00
2023-05-10T14:08:48.397Z,100660.34
2023-05-10T14:11:17.378Z,100674.84
2023-05-10T14:13:45.559Z,100673.84
2023-05-10T14:16:15.786Z,100677.44
2023-05-10T14:18:44.167Z,100668.38
2023-05-10T14:21:12.558Z,100676.22
2023-05-10T14:23:42.004Z,100677.22
2023-05-10T14:26:11.062Z,100666.59
2023-05-10T14:28:40.334Z,100663.75
2023-05-10T14:31:08.947Z,100668.97
2023-05-10T14:33:40.025Z,100671.75
2023-05-10T14:36:09.797Z,100663.44
2023-05-10T14:38:38.045Z,100668.19
2023-05-10T14:41:09.041Z,100662.44
2023-05-10T14:43:38.442Z,100666.00
2023-05-10T14:46:06.620Z,100664.44
2023-05-10T14:48:34.751Z,100660.97
2023-05-10T14:51:03.499Z,100664.22
2023-05-10T14:53:31.822Z,100666.31
2023-05-10T14:56:01.242Z,100665.22
2023-05-10T14:58:33.861Z,100661.31
2023-05-10T15:01:04.439Z,100666.97
2023-05-10T15:03:33.124Z,100662.69
2023-05-10T15:06:01.872Z,100670.41
2023-05-10T15:08:33.469Z,100659.03
2023-05-10T15:11:01.647Z,100661.47
2023-05-10T15:13:31.788Z,100658.94
2023-05-10T15:16:00.192Z,100659.38
2023-05-10T15:18:28.349Z,100658.97
2023-05-10T15:20:56.409Z,100651.06
2023-05-10T15:23:24.559Z,100655.81
2023-05-10T15:25:56.758Z,100652.69
2023-05-10T15:28:24.944Z,100659.75
2023-05-10T15:30:54.779Z,100644.66
2023-05-10T15:33:23.730Z,100651.53
2023-05-10T15:35:52.401Z,100648.94
2023-05-10T15:38:20.830Z,100649.63
2023-05-10T15:40:48.816Z,100648.72
2023-05-10T15:43:17.379Z,100645.13
2023-05-10T15:45:46.482Z,100641.00
2023-05-10T15:48:17.678Z,100646.25
2023-05-10T15:50:46.004Z,100641.38
2023-05-10T15:53:14.749Z,100643.19
2023-05-10T15:55:42.760Z,100639.75
2023-05-10T15:58:11.716Z,100643.22
2023-05-10T16:00:41.107Z,100656.31
2023-05-10T16:03:09.641Z,100648.63
2023-05-10T16:05:39.905Z,100648.63
2023-05-10T16:08:09.921Z,100643.28
2023-05-10T16:10:38.429Z,100639.84
2023-05-10T16:13:09.688Z,100644.97
2023-05-10T16:15:38.093Z,100643.28
2023-05-10T16:18:09.168Z,100641.53
2023-05-10T16:20:38.865Z,100646.75
2023-05-10T16:23:08.349Z,100651.88
2023-05-10T16:25:36.773Z,100647.66
2023-05-10T16:28:04.999Z,100646.25
2023-05-10T16:30:34.595Z,100648.94
2023-05-10T16:33:08.763Z,100642.19
2023-05-10T16:35:38.239Z,100649.25
2023-05-10T16:38:06.812Z,100651.06
2023-05-10T16:40:36.147Z,100658.19
2023-05-10T16:43:04.295Z,100656.63
2023-05-10T16:45:33.935Z,100657.44
2023-05-10T16:48:02.735Z,100664.28
2023-05-10T16:50:31.529Z,100655.44
2023-05-10T16:53:01.401Z,100648.34
2023-05-10T16:55:30.077Z,100656.06
2023-05-10T16:58:01.053Z,100661.16
2023-05-10T17:00:30.360Z,100659.56
2023-05-10T17:02:58.479Z,100663.09
2023-05-10T17:05:28.930Z,100658.75
2023-05-10T17:07:57.402Z,100664.16
2023-05-10T17:10:30.091Z,100672.13
2023-05-10T17:13:01.925Z,100674.81
2023-05-10T17:15:30.909Z,100675.75
2023-05-10T17:18:00.232Z,100677.56
2023-05-10T17:20:28.922Z,100673.41
2023-05-10T17:22:57.053Z,100679.53
2023-05-10T17:25:31.162Z,100684.09
2023-05-10T17:27:59.673Z,100682.63
2023-05-10T17:30:32.884Z,100687.09
2023-05-10T17:33:04.408Z,100688.06
2023-05-10T17:35:35.847Z,100688.34
2023-05-10T17:38:04.189Z,100690.22
2023-05-10T17:40:43.901Z,100701.78
2023-05-10T17:43:12.701Z,100702.81
2023-05-10T17:45:41.444Z,100696.84
2023-05-10T17:48:12.125Z,100697.81
2023-05-10T17:50:43.403Z,100711.66
2023-05-10T17:53:12.383Z,100697.81
2023-05-10T17:55:48.380Z,100704.69
2023-05-10T17:58:18.281Z,100703.03
2023-05-10T18:00:46.600Z,100712.59
2023-05-10T18:03:15.933Z,100708.47
2023-05-10T18:05:44.793Z,100713.81
2023-05-10T18:08:23.053Z,100708.00
2023-05-10T18:10:53.503Z,100711.69
2023-05-10T18:13:22.664Z,100715.34
2023-05-10T18:15:51.185Z,100715.44
2023-05-10T18:18:19.788Z,100716.34
2023-05-10T18:20:49.589Z,100727.69
2023-05-10T18:23:18.020Z,100726.94
2023-05-10T18:25:50.050Z,100733.97
2023-05-10T18:28:19.861Z,100731.50
2023-05-10T18:30:47.947Z,100735.06
2023-05-10T18:33:16.726Z,100737.72
2023-05-10T18:35:47.501Z,100738.63
2023-05-10T18:38:16.493Z,100755.97
2023-05-10T18:40:45.287Z,100752.59
2023-05-10T18:43:15.230Z,100754.44
2023-05-10T18:45:45.153Z,100754.53
2023-05-10T18:48:14.125Z,100766.63
2023-05-10T18:50:45.973Z,100760.66
2023-05-10T18:53:15.071Z,100764.13
2023-05-10T18:55:44.827Z,100757.31
2023-05-10T18:58:18.068Z,100756.50
2023-05-10T19:00:47.885Z,100766.16
2023-05-10T19:03:15.949Z,100763.56
2023-05-10T19:05:44.278Z,100766.25
2023-05-10T19:08:15.436Z,100762.88
2023-05-10T19:10:43.517Z,100759.56
2023-05-10T19:13:12.380Z,100767.38
2023-05-10T19:15:41.873Z,100770.09
2023-05-10T19:18:11.786Z,100768.41
2023-05-10T19:20:42.344Z,100764.13
2023-05-10T19:23:10.897Z,100766.81
2023-05-10T19:25:39.522Z,100764.22
2023-05-10T19:28:11.524Z,100760.78
2023-05-10T19:30:40.284Z,100763.41
2023-05-10T19:33:10.371Z,100765.09
2023-05-10T19:35:39.725Z,100763.41
2023-05-10T19:38:07.661Z,100769.47
2023-05-10T19:40:37.984Z,100771.22
2023-05-10T19:43:05.969Z,100771.25
2023-05-10T19:45:36.434Z,100773.91
2023-05-10T19:48:04.819Z,100774.81
2023-05-10T19:50:32.708Z,100769.69
2023-05-10T19:53:01.963Z,100768.03
2023-05-10T19:55:31.504Z,100768.03
2023-05-10T19:58:00.903Z,100771.47
2023-05-10T20:00:29.142Z,100776.63
2023-05-10T20:02:57.391Z,100769.72
2023-05-10T20:05:25.461Z,100776.59
2023-05-10T20:07:53.458Z,100777.47
2023-05-10T20:10:24.646Z,100778.31
2023-05-10T20:12:54.340Z,100779.22
2023-05-10T20:15:24.128Z,100780.09
2023-05-10T20:17:53.262Z,100785.38
2023-05-10T20:20:21.881Z,100782.03
2023-05-10T20:22:50.031Z,100785.50
2023-05-10T20:25:19.352Z,100778.69
2023-05-10T20:27:50.813Z,100782.19
2023-05-10T20:30:19.635Z,100781.44
2023-05-10T20:32:47.898Z,100784.97
2023-05-10T20:35:15.845Z,100789.31
2023-05-10T20:37:43.744Z,100782.47
2023-05-10T20:40:12.179Z,100776.50
2023-05-10T20:42:41.152Z,100781.69
2023-05-10T20:45:11.738Z,100784.31
2023-05-10T20:47:39.555Z,100792.13
2023-05-10T20:50:08.511Z,100787.06
2023-05-10T20:52:36.373Z,100797.44
2023-05-10T20:55:04.654Z,100787.97
2023-05-10T20:57:32.503Z,100794.88
2023-05-10T21:00:00.573Z,100792.28
2023-05-10T21:02:29.956Z,100802.63
2023-05-10T21:04:58.298Z,100806.97
2023-05-10T21:07:26.468Z,100804.41
2023-05-10T21:09:54.487Z,100799.28
2023-05-10T21:12:22.365Z,100801.84
2023-05-10T21:14:50.429Z,100811.41
2023-05-10T21:17:20.117Z,100814.03
2023-05-10T21:19:50.401Z,100812.31
2023-05-10T21:22:18.354Z,100810.63
2023-05-10T21:24:46.280Z,100811.56
2023-05-10T21:27:14.132Z,100815.97
2023-05-10T21:29:42.073Z,100817.63
2023-05-10T21:32:10.014Z,100816.78
2023-05-10T21:34:37.892Z,100818.53
2023-05-10T21:37:07.338Z,100809.97
2023-05-10T21:39:35.267Z,100814.28
2023-05-10T21:42:03.776Z,100815.22
2023-05-10T21:44:32.192Z,100816.97
2023-05-10T21:47:00.060Z,100814.38
2023-05-10T21:49:28.181Z,100822.13
2023-05-10T21:51:56.074Z,100817.81
2023-05-10T21:54:25.385Z,100824.72
2023-05-10T21:56:53.293Z,100812.69
2023-05-10T21:59:21.766Z,100823.84
2023-05-10T22:01:49.657Z,100822.97
2023-05-10T22:04:17.594Z,100822.97
2023-05-10T22:06:45.414Z,100823.03
2023-05-10T22:09:13.297Z,100825.59
2023-05-10T22:11:42.503Z,100827.31
2023-05-10T22:14:10.467Z,100829.91
2023-05-10T22:16:38.319Z,100823.03
2023-05-10T22:19:06.348Z,100840.28
2023-05-10T22:21:34.362Z,100842.91
2023-05-10T22:24:02.179Z,100836.03
2023-05-10T22:26:30.323Z,100847.22
2023-05-10T22:28:59.612Z,100844.63
2023-05-10T22:31:28.005Z,100851.56
2023-05-10T22:33:55.950Z,100846.41
2023-05-10T22:36:23.816Z,100848.13
2023-05-10T22:38:51.694Z,100850.75
2023-05-10T22:41:19.573Z,100856.78
2023-05-10T22:43:47.445Z,100853.34
2023-05-10T22:46:16.761Z,100851.63
2023-05-10T22:48:44.820Z,100863.69
2023-05-10T22:51:12.690Z,100856.81
2023-05-10T22:53:40.704Z,100853.34
2023-05-10T22:56:08.744Z,100856.81
2023-05-10T22:58:36.924Z,100853.34
2023-05-10T23:01:05.141Z,100866.28
2023-05-10T23:03:34.376Z,100860.25
2023-05-10T23:06:02.254Z,100857.66
2023-05-10T23:08:30.090Z,100859.41
2023-05-10T23:10:58.056Z,100861.13
2023-05-10T23:13:25.958Z,100869.69
2023-05-10T23:15:53.933Z,100863.72
2023-05-10T23:18:23.172Z,100866.28
2023-05-10T23:20:55.517Z,100864.56
2023-05-10T23:23:23.864Z,100861.97
2023-05-10T23:25:52.156Z,100860.25
2023-05-10T23:28:20.034Z,100859.41
2023-05-10T23:30:47.926Z,100859.44
2023-05-10T23:33:16.012Z,100857.72
2023-05-10T23:35:43.893Z,100849.13
2023-05-10T23:38:13.196Z,100866.34
2023-05-10T23:40:41.243Z,100868.91
2023-05-10T23:43:09.253Z,100865.44
2023-05-10T23:45:37.137Z,100864.59
2023-05-10T23:48:05.383Z,100866.34
2023-05-10T23:50:33.450Z,100862.00
2023-05-10T23:53:02.103Z,100864.59
2023-05-10T23:55:31.404Z,100860.28
2023-05-10T23:57:59.280Z,100865.47
